Time,TemperatureF,DewpointF,PressureIn,WindDirection,WindDirectionDegrees,WindSpeedMPH,WindSpeedGustMPH,Humidity,HourlyPrecipIn,Conditions,Clouds,dailyrainin,SoftwareType,DateUTC
2013-04-26 00:01:00,44.2,22.6,30.44,NNE,12,0.0,1.0,42,0.00,,,0.00,WeatherCatV1.02B3,2013-04-26 04:01:00,
2013-04-26 00:06:00,44.3,22.7,30.44,ENE,77,1.0,5.0,42,0.00,,,0.00,WeatherCatV1.02B3,2013-04-26 04:06:00,
2013-04-26 00:11:00,44.6,22.9,30.44,NNW,334,0.0,3.0,42,0.00,,,0.00,WeatherCatV1.02B3,2013-04-26 04:11:00,
2013-04-26 00:16:00,44.9,22.6,30.44,NW,304,0.0,3.0,41,0.00,,,0.00,WeatherCatV1.02B3,2013-04-26 04:16:00,
2013-04-26 00:21:00,45.0,22.7,30.44,NW,311,0.0,3.0,41,0.00,,,0.00,WeatherCatV1.02B3,2013-04-26 04:21:00,
2013-04-26 00:26:00,45.2,22.9,30.44,WNW,303,0.0,2.0,41,0.00,,,0.00,WeatherCatV1.02B3,2013-04-26 04:26:00,
2013-04-26 00:31:00,45.2,23.5,30.44,NNW,334,1.0,5.0,42,0.00,,,0.00,WeatherCatV1.02B3,2013-04-26 04:31:00,
2013-04-26 00:36:00,45.0,23.3,30.44,NNW,336,0.0,5.0,42,0.00,,,0.00,WeatherCatV1.02B3,2013-04-26 04:36:00,
2013-04-26 00:41:00,45.0,23.3,30.44,NW,304,4.0,4.0,42,0.00,,,0.00,WeatherCatV1.02B3,2013-04-26 04:41:00,
2013-04-26 00:46:00,45.0,23.3,30.44,SSW,212,3.0,3.0,42,0.00,,,0.00,WeatherCatV1.02B3,2013-04-26 04:46:00,
2013-04-26 00:51:00,45.0,23.3,30.44,NW,311,0.0,4.0,42,0.00,,,0.00,WeatherCatV1.02B3,2013-04-26 04:51:00,
2013-04-26 00:56:00,44.9,23.2,30.44,NNW,328,0.0,1.0,42,0.00,,,0.00,WeatherCatV1.02B3,2013-04-26 04:56:00,
2013-04-26 01:01:00,44.9,23.8,30.44,NW,322,0.0,1.0,43,0.00,,,0.00,WeatherCatV1.02B3,2013-04-26 05:01:00,
2013-04-26 01:06:00,44.8,24.8,30.45,NW,323,0.0,2.0,45,0.00,,,0.00,WeatherCatV1.02B3,2013-04-26 05:06:00,
2013-04-26 01:11:00,44.6,24.6,30.44,NNE,28,1.0,3.0,45,0.00,,,0.00,WeatherCatV1.02B3,2013-04-26 05:11:00,
2013-04-26 01:16:00,44.4,23.9,30.44,NNW,338,0.0,1.0,44,0.00,,,0.00,WeatherCatV1.02B3,2013-04-26 05:16:00,
2013-04-26 01:21:00,44.0,24.6,30.44,NNW,344,0.0,0.0,46,0.00,,,0.00,WeatherCatV1.02B3,2013-04-26 05:21:00,
2013-04-26 01:26:00,43.7,23.8,30.44,NNE,16,0.0,1.0,45,0.00,,,0.00,WeatherCatV1.02B3,2013-04-26 05:26:00,
2013-04-26 01:31:00,43.5,24.1,30.44,NNE,22,0.0,4.0,46,0.00,,,0.00,WeatherCatV1.02B3,2013-04-26 05:31:00,
2013-04-26 01:36:00,43.4,24.5,30.44,NNE,21,0.0,0.0,47,0.00,,,0.00,WeatherCatV1.02B3,2013-04-26 05:36:00,
2013-04-26 01:41:00,43.5,24.6,30.44,West,267,3.0,4.0,47,0.00,,,0.00,WeatherCatV1.02B3,2013-04-26 05:41:00,
2013-04-26 01:46:00,43.6,24.7,30.44,ENE,78,0.0,1.0,47,0.00,,,0.00,WeatherCatV1.02B3,2013-04-26 05:46:00,
2013-04-26 01:51:00,43.8,24.9,30.44,WSW,256,1.0,2.0,47,0.00,,,0.00,WeatherCatV1.02B3,2013-04-26 05:51:00,
2013-04-26 01:56:00,44.1,25.2,30.44,NW,306,0.0,4.0,47,0.00,,,0.00,WeatherCatV1.02B3,2013-04-26 05:56:00,
2013-04-26 02:01:00,44.2,25.3,30.44,SW,231,1.0,6.0,47,0.00,,,0.00,WeatherCatV1.02B3,2013-04-26 06:01:00,
2013-04-26 02:06:00,44.2,24.7,30.44,NE,41,0.0,5.0,46,0.00,,,0.00,WeatherCatV1.02B3,2013-04-26 06:06:00,
2013-04-26 02:11:00,44.2,25.3,30.44,NW,313,0.0,2.0,47,0.00,,,0.00,WeatherCatV1.02B3,2013-04-26 06:11:00,
2013-04-26 02:16:00,44.2,25.3,30.43,West,281,0.0,1.0,47,0.00,,,0.00,WeatherCatV1.02B3,2013-04-26 06:16:00,
2013-04-26 02:21:00,44.2,25.3,30.43,NNW,330,2.0,3.0,47,0.00,,,0.00,WeatherCatV1.02B3,2013-04-26 06:21:00,
2013-04-26 02:26:00,44.2,25.8,30.43,NNW,333,0.0,4.0,48,0.00,,,0.00,WeatherCatV1.02B3,2013-04-26 06:26:00,
2013-04-26 02:31:00,44.2,25.3,30.43,NW,307,3.0,5.0,47,0.00,,,0.00,WeatherCatV1.02B3,2013-04-26 06:31:00,
2013-04-26 02:36:00,44.3,26.4,30.43,WNW,292,0.0,0.0,49,0.00,,,0.00,WeatherCatV1.02B3,2013-04-26 06:36:00,
2013-04-26 02:41:00,44.2,25.8,30.43,NNW,347,0.0,4.0,48,0.00,,,0.00,WeatherCatV1.02B3,2013-04-26 06:41:00,
2013-04-26 02:46:00,44.1,26.2,30.43,NW,313,1.0,3.0,49,0.00,,,0.00,WeatherCatV1.02B3,2013-04-26 06:46:00,
2013-04-26 02:51:00,44.0,26.6,30.43,NNW,345,0.0,1.0,50,0.00,,,0.00,WeatherCatV1.02B3,2013-04-26 06:51:00,
2013-04-26 02:56:00,44.0,26.1,30.43,NNW,333,0.0,6.0,49,0.00,,,0.00,WeatherCatV1.02B3,2013-04-26 06:56:00,
2013-04-26 03:01:00,44.0,26.1,30.42,WNW,291,0.0,8.0,49,0.00,,,0.00,WeatherCatV1.02B3,2013-04-26 07:01:00,
2013-04-26 03:06:00,44.0,26.1,30.43,SW,223,0.0,0.0,49,0.00,,,0.00,WeatherCatV1.02B3,2013-04-26 07:06:00,
2013-04-26 03:11:00,43.9,26.0,30.42,WNW,292,0.0,2.0,49,0.00,,,0.00,WeatherCatV1.02B3,2013-04-26 07:11:00,
2013-04-26 03:16:00,43.9,26.0,30.42,WNW,294,3.0,7.0,49,0.00,,,0.00,WeatherCatV1.02B3,2013-04-26 07:16:00,
2013-04-26 03:21:00,43.8,25.9,30.42,SW,215,0.0,2.0,49,0.00,,,0.00,WeatherCatV1.02B3,2013-04-26 07:21:00,
2013-04-26 03:26:00,43.7,26.3,30.42,SW,230,0.0,3.0,50,0.00,,,0.00,WeatherCatV1.02B3,2013-04-26 07:26:00,
2013-04-26 03:31:00,43.5,26.1,30.42,West,272,0.0,4.0,50,0.00,,,0.00,WeatherCatV1.02B3,2013-04-26 07:31:00,
2013-04-26 03:36:00,43.4,26.0,30.42,West,273,0.0,1.0,50,0.00,,,0.00,WeatherCatV1.02B3,2013-04-26 07:36:00,
2013-04-26 03:41:00,43.4,26.5,30.42,West,273,0.0,1.0,51,0.00,,,0.00,WeatherCatV1.02B3,2013-04-26 07:41:00,
2013-04-26 03:46:00,43.2,26.3,30.42,WNW,284,0.0,0.0,51,0.00,,,0.00,WeatherCatV1.02B3,2013-04-26 07:46:00,
2013-04-26 03:51:00,43.1,26.7,30.42,West,281,0.0,0.0,52,0.00,,,0.00,WeatherCatV1.02B3,2013-04-26 07:51:00,
2013-04-26 03:56:00,42.9,26.5,30.42,West,281,0.0,0.0,52,0.00,,,0.00,WeatherCatV1.02B3,2013-04-26 07:56:00,
2013-04-26 04:01:00,42.8,26.4,30.42,West,280,0.0,0.0,52,0.00,,,0.00,WeatherCatV1.02B3,2013-04-26 08:01:00,
2013-04-26 04:06:00,42.6,26.7,30.42,WNW,294,0.0,0.0,53,0.00,,,0.00,WeatherCatV1.02B3,2013-04-26 08:06:00,
2013-04-26 04:11:00,42.4,26.0,30.42,WNW,294,0.0,0.0,52,0.00,,,0.00,WeatherCatV1.02B3,2013-04-26 08:11:00,
2013-04-26 04:16:00,42.4,26.0,30.42,WNW,294,0.0,0.0,52,0.00,,,0.00,WeatherCatV1.02B3,2013-04-26 08:16:00,
2013-04-26 04:21:00,42.4,26.5,30.42,WNW,294,0.0,0.0,53,0.00,,,0.00,WeatherCatV1.02B3,2013-04-26 08:21:00,
2013-04-26 04:26:00,42.3,25.5,30.42,WNW,292,0.0,0.0,51,0.00,,,0.00,WeatherCatV1.02B3,2013-04-26 08:26:00,
2013-04-26 04:31:00,42.7,26.3,30.42,WNW,292,0.0,0.0,52,0.00,,,0.00,WeatherCatV1.02B3,2013-04-26 08:31:00,
2013-04-26 04:36:00,42.6,26.2,30.42,NW,311,0.0,1.0,52,0.00,,,0.00,WeatherCatV1.02B3,2013-04-26 08:36:00,
2013-04-26 04:41:00,42.3,26.4,30.42,NW,312,0.0,0.0,53,0.00,,,0.00,WeatherCatV1.02B3,2013-04-26 08:41:00,
2013-04-26 04:46:00,42.2,26.3,30.42,NW,311,0.0,0.0,53,0.00,,,0.00,WeatherCatV1.02B3,2013-04-26 08:46:00,
2013-04-26 04:51:00,42.1,26.7,30.42,NW,311,0.0,0.0,54,0.00,,,0.00,WeatherCatV1.02B3,2013-04-26 08:51:00,
2013-04-26 04:56:00,42.2,25.9,30.42,NW,312,0.0,0.0,52,0.00,,,0.00,WeatherCatV1.02B3,2013-04-26 08:56:00,
2013-04-26 05:00:00,42.3,27.3,30.42,NW,311,0.0,0.0,55,0.00,,,0.00,WeatherCatV1.02B3,2013-04-26 09:00:00,
2013-04-26 05:05:00,42.1,25.8,30.42,NW,311,0.0,0.0,52,0.00,,,0.00,WeatherCatV1.02B3,2013-04-26 09:05:00,
2013-04-26 05:10:00,42.1,25.8,30.42,NW,312,0.0,0.0,52,0.00,,,0.00,WeatherCatV1.02B3,2013-04-26 09:10:00,
2013-04-26 05:15:00,42.0,27.0,30.42,NW,311,0.0,1.0,55,0.00,,,0.00,WeatherCatV1.02B3,2013-04-26 09:15:00,
2013-04-26 05:20:00,41.7,25.8,30.42,NW,309,0.0,3.0,53,0.00,,,0.00,WeatherCatV1.02B3,2013-04-26 09:20:00,
2013-04-26 05:25:00,41.6,26.6,30.42,NW,309,0.0,0.0,55,0.00,,,0.00,WeatherCatV1.02B3,2013-04-26 09:25:00,
2013-04-26 05:30:00,41.6,27.1,30.43,NW,309,0.0,0.0,56,0.00,,,0.00,WeatherCatV1.02B3,2013-04-26 09:30:00,
2013-04-26 05:35:00,41.4,26.9,30.43,NW,309,0.0,0.0,56,0.00,,,0.00,WeatherCatV1.02B3,2013-04-26 09:35:00,
2013-04-26 05:40:00,41.3,26.8,30.43,NE,46,0.0,0.0,56,0.00,,,0.00,WeatherCatV1.02B3,2013-04-26 09:40:00,
2013-04-26 05:45:00,41.4,26.9,30.43,NE,47,0.0,0.0,56,0.00,,,0.00,WeatherCatV1.02B3,2013-04-26 09:45:00,
2013-04-26 05:50:00,41.4,26.9,30.43,NE,47,0.0,0.0,56,0.00,,,0.00,WeatherCatV1.02B3,2013-04-26 09:50:00,
2013-04-26 05:55:00,41.1,27.5,30.43,NE,46,0.0,0.0,58,0.00,,,0.00,WeatherCatV1.02B3,2013-04-26 09:55:00,
2013-04-26 06:00:00,40.8,27.2,30.43,NE,47,0.0,1.0,58,0.00,,,0.00,WeatherCatV1.02B3,2013-04-26 10:00:00,
2013-04-26 06:05:00,40.6,26.6,30.43,North,355,0.0,1.0,57,0.00,,,0.00,WeatherCatV1.02B3,2013-04-26 10:05:00,
2013-04-26 06:10:00,40.6,27.4,30.43,North,355,0.0,1.0,59,0.00,,,0.00,WeatherCatV1.02B3,2013-04-26 10:10:00,
2013-04-26 06:15:00,40.4,26.8,30.43,North,355,0.0,3.0,58,0.00,,,0.00,WeatherCatV1.02B3,2013-04-26 10:15:00,
2013-04-26 06:20:00,40.5,26.9,30.43,SSW,192,0.0,1.0,58,0.00,,,0.00,WeatherCatV1.02B3,2013-04-26 10:20:00,
2013-04-26 06:25:00,40.6,27.0,30.44,SSW,192,0.0,3.0,58,0.00,,,0.00,WeatherCatV1.02B3,2013-04-26 10:25:00,
2013-04-26 06:30:00,40.8,26.8,30.44,SSW,192,0.0,0.0,57,0.00,,,0.00,WeatherCatV1.02B3,2013-04-26 10:30:00,
2013-04-26 06:35:00,41.1,27.0,30.44,South,191,0.0,1.0,57,0.00,,,0.00,WeatherCatV1.02B3,2013-04-26 10:35:00,
2013-04-26 06:40:00,41.2,26.7,30.44,North,9,0.0,0.0,56,0.00,,,0.00,WeatherCatV1.02B3,2013-04-26 10:40:00,
2013-04-26 06:45:00,41.4,26.9,30.44,NW,325,0.0,2.0,56,0.00,,,0.00,WeatherCatV1.02B3,2013-04-26 10:45:00,
2013-04-26 06:50:00,41.9,26.9,30.44,SSW,202,0.0,2.0,55,0.00,,,0.00,WeatherCatV1.02B3,2013-04-26 10:50:00,
2013-04-26 06:55:00,42.3,26.9,30.45,WSW,255,2.0,2.0,54,0.00,,,0.00,WeatherCatV1.02B3,2013-04-26 10:55:00,
2013-04-26 07:00:00,42.7,26.8,30.45,West,265,0.0,4.0,53,0.00,,,0.00,WeatherCatV1.02B3,2013-04-26 11:00:00,
2013-04-26 07:05:00,42.9,27.0,30.45,West,270,0.0,0.0,53,0.00,,,0.00,WeatherCatV1.02B3,2013-04-26 11:05:00,
2013-04-26 07:10:00,43.0,26.6,30.46,WNW,300,3.0,3.0,52,0.00,,,0.00,WeatherCatV1.02B3,2013-04-26 11:10:00,
2013-04-26 07:15:00,43.2,27.2,30.46,WNW,289,1.0,3.0,53,0.00,,,0.00,WeatherCatV1.02B3,2013-04-26 11:15:00,
2013-04-26 07:20:00,43.3,26.9,30.46,West,275,0.0,1.0,52,0.00,,,0.00,WeatherCatV1.02B3,2013-04-26 11:20:00,
2013-04-26 07:25:00,43.2,27.2,30.47,West,268,0.0,0.0,53,0.00,,,0.00,WeatherCatV1.02B3,2013-04-26 11:25:00,
2013-04-26 07:30:00,43.1,27.1,30.46,West,261,3.0,4.0,53,0.00,,,0.00,WeatherCatV1.02B3,2013-04-26 11:30:00,
2013-04-26 07:35:00,43.0,27.5,30.46,West,261,0.0,0.0,54,0.00,,,0.00,WeatherCatV1.02B3,2013-04-26 11:35:00,
2013-04-26 07:40:00,42.9,27.9,30.46,West,261,0.0,0.0,55,0.00,,,0.00,WeatherCatV1.02B3,2013-04-26 11:40:00,
2013-04-26 07:45:00,42.6,28.0,30.47,West,260,0.0,0.0,56,0.00,,,0.00,WeatherCatV1.02B3,2013-04-26 11:45:00,
2013-04-26 07:50:00,42.3,28.2,30.47,West,261,0.0,0.0,57,0.00,,,0.00,WeatherCatV1.02B3,2013-04-26 11:50:00,
2013-04-26 07:55:00,42.1,27.5,30.47,West,260,0.0,1.0,56,0.00,,,0.00,WeatherCatV1.02B3,2013-04-26 11:55:00,
2013-04-26 08:00:00,42.1,28.4,30.47,West,260,0.0,0.0,58,0.00,,,0.00,WeatherCatV1.02B3,2013-04-26 12:00:00,
2013-04-26 08:05:00,42.1,28.4,30.47,West,261,0.0,0.0,58,0.00,,,0.00,WeatherCatV1.02B3,2013-04-26 12:05:00,
2013-04-26 08:10:00,42.2,28.5,30.48,West,261,0.0,0.0,58,0.00,,,0.00,WeatherCatV1.02B3,2013-04-26 12:10:00,
2013-04-26 08:15:00,42.3,28.6,30.48,West,261,0.0,1.0,58,0.00,,,0.00,WeatherCatV1.02B3,2013-04-26 12:15:00,
2013-04-26 08:20:00,42.3,28.6,30.48,West,261,0.0,0.0,58,0.00,,,0.00,WeatherCatV1.02B3,2013-04-26 12:20:00,
2013-04-26 08:25:00,42.3,28.6,30.48,West,261,0.0,1.0,58,0.00,,,0.00,WeatherCatV1.02B3,2013-04-26 12:25:00,
2013-04-26 08:30:00,42.3,28.6,30.48,West,261,0.0,0.0,58,0.00,,,0.00,WeatherCatV1.02B3,2013-04-26 12:30:00,
2013-04-26 08:35:00,42.2,28.9,30.49,West,261,0.0,1.0,59,0.00,,,0.00,WeatherCatV1.02B3,2013-04-26 12:35:00,
2013-04-26 08:40:00,42.3,28.6,30.49,West,261,0.0,0.0,58,0.00,,,0.00,WeatherCatV1.02B3,2013-04-26 12:40:00,
2013-04-26 08:45:00,42.4,28.7,30.49,West,261,0.0,0.0,58,0.00,,,0.00,WeatherCatV1.02B3,2013-04-26 12:45:00,
2013-04-26 08:50:00,42.7,28.5,30.49,West,261,0.0,0.0,57,0.00,,,0.00,WeatherCatV1.02B3,2013-04-26 12:50:00,
2013-04-26 08:55:00,42.9,28.7,30.49,West,261,0.0,0.0,57,0.00,,,0.00,WeatherCatV1.02B3,2013-04-26 12:55:00,
2013-04-26 09:00:00,43.0,28.8,30.49,West,261,0.0,0.0,57,0.00,,,0.00,WeatherCatV1.02B3,2013-04-26 13:00:00,
2013-04-26 09:05:00,43.2,29.4,30.49,West,261,0.0,0.0,58,0.00,,,0.00,WeatherCatV1.02B3,2013-04-26 13:05:00,
2013-04-26 09:10:00,43.4,29.2,30.49,West,261,0.0,1.0,57,0.00,,,0.00,WeatherCatV1.02B3,2013-04-26 13:10:00,
2013-04-26 09:15:00,43.8,30.0,30.49,West,261,0.0,0.0,58,0.00,,,0.00,WeatherCatV1.02B3,2013-04-26 13:15:00,
2013-04-26 09:20:00,44.3,30.9,30.49,West,261,0.0,1.0,59,0.00,,,0.00,WeatherCatV1.02B3,2013-04-26 13:20:00,
2013-04-26 09:25:00,45.0,31.5,30.50,West,261,0.0,3.0,59,0.00,,,0.00,WeatherCatV1.02B3,2013-04-26 13:25:00,
2013-04-26 09:30:00,45.7,31.8,30.50,West,261,0.0,1.0,58,0.00,,,0.00,WeatherCatV1.02B3,2013-04-26 13:30:00,
2013-04-26 09:35:00,46.3,31.9,30.50,West,262,0.0,0.0,57,0.00,,,0.00,WeatherCatV1.02B3,2013-04-26 13:35:00,
2013-04-26 09:40:00,47.0,31.2,30.50,West,262,0.0,0.0,54,0.00,,,0.00,WeatherCatV1.02B3,2013-04-26 13:40:00,
2013-04-26 09:45:00,48.0,32.2,30.50,West,262,2.0,3.0,54,0.00,,,0.00,WeatherCatV1.02B3,2013-04-26 13:45:00,
2013-04-26 09:50:00,49.2,32.8,30.50,West,261,0.0,1.0,53,0.00,,,0.00,WeatherCatV1.02B3,2013-04-26 13:50:00,
2013-04-26 09:55:00,50.4,33.0,30.50,West,263,0.0,2.0,51,0.00,,,0.00,WeatherCatV1.02B3,2013-04-26 13:55:00,
2013-04-26 10:00:00,51.4,33.4,30.50,NNW,329,0.0,1.0,50,0.00,,,0.00,WeatherCatV1.02B3,2013-04-26 14:00:00,
2013-04-26 10:05:00,52.1,33.5,30.50,NW,323,1.0,2.0,49,0.00,,,0.00,WeatherCatV1.02B3,2013-04-26 14:05:00,
2013-04-26 10:10:00,52.2,33.1,30.50,NW,323,0.0,0.0,48,0.00,,,0.00,WeatherCatV1.02B3,2013-04-26 14:10:00,
2013-04-26 10:15:00,52.1,33.0,30.49,NNW,338,3.0,3.0,48,0.00,,,0.00,WeatherCatV1.02B3,2013-04-26 14:15:00,
2013-04-26 10:20:00,52.6,32.4,30.49,NNW,338,0.0,1.0,46,0.00,,,0.00,WeatherCatV1.02B3,2013-04-26 14:20:00,
2013-04-26 10:25:00,53.0,33.3,30.50,NNW,334,0.0,3.0,47,0.00,,,0.00,WeatherCatV1.02B3,2013-04-26 14:25:00,
2013-04-26 10:30:00,53.6,33.3,30.50,North,5,2.0,4.0,46,0.00,,,0.00,WeatherCatV1.02B3,2013-04-26 14:30:00,
2013-04-26 10:35:00,53.8,33.5,30.50,North,5,0.0,3.0,46,0.00,,,0.00,WeatherCatV1.02B3,2013-04-26 14:35:00,
2013-04-26 10:40:00,54.1,32.7,30.49,NNE,15,0.0,1.0,44,0.00,,,0.00,WeatherCatV1.02B3,2013-04-26 14:40:00,
2013-04-26 10:45:00,54.7,32.6,30.49,NNE,21,0.0,1.0,43,0.00,,,0.00,WeatherCatV1.02B3,2013-04-26 14:45:00,
2013-04-26 10:50:00,55.5,33.4,30.49,NNE,22,0.0,1.0,43,0.00,,,0.00,WeatherCatV1.02B3,2013-04-26 14:50:00,
2013-04-26 10:55:00,55.8,31.8,30.49,NNW,327,1.0,4.0,40,0.00,,,0.00,WeatherCatV1.02B3,2013-04-26 14:55:00,
2013-04-26 11:00:00,56.6,31.9,30.49,West,277,0.0,1.0,39,0.00,,,0.00,WeatherCatV1.02B3,2013-04-26 15:00:00,
2013-04-26 11:05:00,57.2,31.8,30.49,South,186,0.0,6.0,38,0.00,,,0.00,WeatherCatV1.02B3,2013-04-26 15:05:00,
2013-04-26 11:10:00,57.6,31.5,30.49,WSW,245,0.0,3.0,37,0.00,,,0.00,WeatherCatV1.02B3,2013-04-26 15:10:00,
2013-04-26 11:15:00,58.2,32.7,30.49,NW,310,0.0,2.0,38,0.00,,,0.00,WeatherCatV1.02B3,2013-04-26 15:15:00,
2013-04-26 11:20:00,59.0,32.8,30.50,SSW,203,2.0,2.0,37,0.00,,,0.00,WeatherCatV1.02B3,2013-04-26 15:20:00,
2013-04-26 11:25:00,59.0,32.1,30.50,WSW,247,6.0,6.0,36,0.00,,,0.00,WeatherCatV1.02B3,2013-04-26 15:25:00,
2013-04-26 11:31:00,58.7,32.5,30.50,SW,221,0.0,4.0,37,0.00,,,0.00,WeatherCatV1.02B3,2013-04-26 15:31:00,
2013-04-26 11:36:00,59.0,32.8,30.50,WSW,253,2.0,9.0,37,0.00,,,0.00,WeatherCatV1.02B3,2013-04-26 15:36:00,
2013-04-26 11:41:00,59.0,32.8,30.49,SE,134,0.0,1.0,37,0.00,,,0.00,WeatherCatV1.02B3,2013-04-26 15:41:00,
2013-04-26 11:46:00,59.5,33.2,30.49,WSW,250,4.0,6.0,37,0.00,,,0.00,WeatherCatV1.02B3,2013-04-26 15:46:00,
2013-04-26 11:51:00,59.6,34.0,30.49,SSW,198,2.0,4.0,38,0.00,,,0.00,WeatherCatV1.02B3,2013-04-26 15:51:00,
2013-04-26 11:56:00,59.8,32.8,30.49,SSW,213,4.0,6.0,36,0.00,,,0.00,WeatherCatV1.02B3,2013-04-26 15:56:00,
2013-04-26 12:01:00,59.8,33.5,30.49,SSE,167,1.0,4.0,37,0.00,,,0.00,WeatherCatV1.02B3,2013-04-26 16:01:00,
2013-04-26 12:06:00,59.9,32.9,30.49,SSW,194,0.0,7.0,36,0.00,,,0.00,WeatherCatV1.02B3,2013-04-26 16:06:00,
2013-04-26 12:11:00,59.4,33.1,30.50,ENE,61,3.0,7.0,37,0.00,,,0.00,WeatherCatV1.02B3,2013-04-26 16:11:00,
2013-04-26 12:16:00,59.1,33.5,30.49,NE,46,0.0,2.0,38,0.00,,,0.00,WeatherCatV1.02B3,2013-04-26 16:16:00,
2013-04-26 12:21:00,59.4,32.4,30.50,SSE,157,5.0,7.0,36,0.00,,,0.00,WeatherCatV1.02B3,2013-04-26 16:21:00,
2013-04-26 12:26:00,59.5,32.5,30.49,SSW,210,1.0,6.0,36,0.00,,,0.00,WeatherCatV1.02B3,2013-04-26 16:26:00,
2013-04-26 12:31:00,59.5,32.5,30.50,WSW,257,0.0,5.0,36,0.00,,,0.00,WeatherCatV1.02B3,2013-04-26 16:31:00,
2013-04-26 12:36:00,60.2,33.1,30.49,SW,233,0.0,4.0,36,0.00,,,0.00,WeatherCatV1.02B3,2013-04-26 16:36:00,
2013-04-26 12:41:00,60.8,33.7,30.49,WSW,250,1.0,6.0,36,0.00,,,0.00,WeatherCatV1.02B3,2013-04-26 16:41:00,
2013-04-26 12:46:00,61.0,33.2,30.49,West,267,0.0,0.0,35,0.00,,,0.00,WeatherCatV1.02B3,2013-04-26 16:46:00,
2013-04-26 12:51:00,60.3,33.2,30.49,ESE,102,0.0,10.0,36,0.00,,,0.00,WeatherCatV1.02B3,2013-04-26 16:51:00,
2013-04-26 12:56:00,60.4,34.7,30.49,North,351,0.0,2.0,38,0.00,,,0.00,WeatherCatV1.02B3,2013-04-26 16:56:00,
2013-04-26 13:01:00,61.1,33.9,30.48,North,0,0.0,6.0,36,0.00,,,0.00,WeatherCatV1.02B3,2013-04-26 17:01:00,
2013-04-26 13:06:00,62.2,34.2,30.48,WSW,254,1.0,5.0,35,0.00,,,0.00,WeatherCatV1.02B3,2013-04-26 17:06:00,
2013-04-26 13:11:00,62.2,32.7,30.49,West,260,0.0,8.0,33,0.00,,,0.00,WeatherCatV1.02B3,2013-04-26 17:11:00,
2013-04-26 13:16:00,62.2,34.2,30.49,SW,229,5.0,10.0,35,0.00,,,0.00,WeatherCatV1.02B3,2013-04-26 17:16:00,
2013-04-26 13:21:00,62.0,33.3,30.48,SW,234,2.0,4.0,34,0.00,,,0.00,WeatherCatV1.02B3,2013-04-26 17:21:00,
2013-04-26 13:26:00,61.9,33.2,30.48,ESE,110,0.0,1.0,34,0.00,,,0.00,WeatherCatV1.02B3,2013-04-26 17:26:00,
2013-04-26 13:31:00,62.0,33.3,30.48,SSE,163,4.0,6.0,34,0.00,,,0.00,WeatherCatV1.02B3,2013-04-26 17:31:00,
2013-04-26 13:36:00,61.7,33.8,30.48,WSW,240,5.0,6.0,35,0.00,,,0.00,WeatherCatV1.02B3,2013-04-26 17:36:00,
2013-04-26 13:41:00,61.3,34.1,30.48,West,264,0.0,9.0,36,0.00,,,0.00,WeatherCatV1.02B3,2013-04-26 17:41:00,
2013-04-26 13:46:00,61.0,32.4,30.48,SE,132,0.0,1.0,34,0.00,,,0.00,WeatherCatV1.02B3,2013-04-26 17:46:00,
2013-04-26 13:51:00,60.7,33.6,30.48,NNE,28,5.0,7.0,36,0.00,,,0.00,WeatherCatV1.02B3,2013-04-26 17:51:00,
2013-04-26 13:56:00,60.4,33.3,30.48,NE,45,0.0,6.0,36,0.00,,,0.00,WeatherCatV1.02B3,2013-04-26 17:56:00,
2013-04-26 14:01:00,60.3,33.9,30.48,WSW,245,0.0,4.0,37,0.00,,,0.00,WeatherCatV1.02B3,2013-04-26 18:01:00,
2013-04-26 14:06:00,60.3,33.9,30.48,SW,219,0.0,1.0,37,0.00,,,0.00,WeatherCatV1.02B3,2013-04-26 18:06:00,
2013-04-26 14:11:00,60.7,34.9,30.47,ENE,60,0.0,4.0,38,0.00,,,0.00,WeatherCatV1.02B3,2013-04-26 18:11:00,
2013-04-26 14:16:00,61.6,35.7,30.48,ENE,78,0.0,2.0,38,0.00,,,0.00,WeatherCatV1.02B3,2013-04-26 18:16:00,
2013-04-26 14:21:00,62.4,35.8,30.48,North,355,0.0,5.0,37,0.00,,,0.00,WeatherCatV1.02B3,2013-04-26 18:21:00,
2013-04-26 14:26:00,62.7,35.4,30.48,SE,138,0.0,1.0,36,0.00,,,0.00,WeatherCatV1.02B3,2013-04-26 18:26:00,
2013-04-26 14:31:00,63.0,34.2,30.48,SW,221,0.0,6.0,34,0.00,,,0.00,WeatherCatV1.02B3,2013-04-26 18:31:00,
2013-04-26 14:36:00,63.0,34.2,30.48,SE,145,2.0,3.0,34,0.00,,,0.00,WeatherCatV1.02B3,2013-04-26 18:36:00,
2013-04-26 14:41:00,62.0,34.0,30.48,South,173,0.0,1.0,35,0.00,,,0.00,WeatherCatV1.02B3,2013-04-26 18:41:00,
2013-04-26 14:46:00,62.6,33.8,30.47,SSE,148,0.0,5.0,34,0.00,,,0.00,WeatherCatV1.02B3,2013-04-26 18:46:00,
2013-04-26 14:51:00,63.4,34.5,30.47,WSW,242,0.0,3.0,34,0.00,,,0.00,WeatherCatV1.02B3,2013-04-26 18:51:00,
2013-04-26 14:56:00,64.1,35.2,30.47,NW,324,0.0,3.0,34,0.00,,,0.00,WeatherCatV1.02B3,2013-04-26 18:56:00,
2013-04-26 15:01:00,64.4,33.9,30.47,SW,216,1.0,2.0,32,0.00,,,0.00,WeatherCatV1.02B3,2013-04-26 19:01:00,
2013-04-26 15:06:00,64.1,34.4,30.46,SW,227,0.0,7.0,33,0.00,,,0.00,WeatherCatV1.02B3,2013-04-26 19:06:00,
2013-04-26 15:11:00,64.0,34.3,30.46,WSW,249,0.0,4.0,33,0.00,,,0.00,WeatherCatV1.02B3,2013-04-26 19:11:00,
2013-04-26 15:16:00,64.0,35.8,30.46,WNW,298,1.0,4.0,35,0.00,,,0.00,WeatherCatV1.02B3,2013-04-26 19:16:00,
2013-04-26 15:21:00,63.9,35.0,30.46,SW,222,0.0,5.0,34,0.00,,,0.00,WeatherCatV1.02B3,2013-04-26 19:21:00,
2013-04-26 15:26:00,63.8,34.9,30.45,ESE,115,1.0,2.0,34,0.00,,,0.00,WeatherCatV1.02B3,2013-04-26 19:26:00,
2013-04-26 15:31:00,63.4,35.3,30.45,North,355,0.0,1.0,35,0.00,,,0.00,WeatherCatV1.02B3,2013-04-26 19:31:00,
2013-04-26 15:36:00,63.2,34.4,30.45,SSW,211,2.0,5.0,34,0.00,,,0.00,WeatherCatV1.02B3,2013-04-26 19:36:00,
2013-04-26 15:41:00,62.8,34.7,30.45,West,265,1.0,2.0,35,0.00,,,0.00,WeatherCatV1.02B3,2013-04-26 19:41:00,
2013-04-26 15:46:00,62.9,35.5,30.45,WNW,290,0.0,3.0,36,0.00,,,0.00,WeatherCatV1.02B3,2013-04-26 19:46:00,
2013-04-26 15:51:00,63.3,35.2,30.45,SSE,158,0.0,3.0,35,0.00,,,0.00,WeatherCatV1.02B3,2013-04-26 19:51:00,
2013-04-26 15:56:00,63.8,35.6,30.44,West,273,1.0,4.0,35,0.00,,,0.00,WeatherCatV1.02B3,2013-04-26 19:56:00,
2013-04-26 16:01:00,64.5,36.2,30.44,WSW,241,4.0,4.0,35,0.00,,,0.00,WeatherCatV1.02B3,2013-04-26 20:01:00,
2013-04-26 16:06:00,64.9,36.6,30.44,WNW,303,3.0,4.0,35,0.00,,,0.00,WeatherCatV1.02B3,2013-04-26 20:06:00,
2013-04-26 16:11:00,64.7,35.7,30.44,NW,307,1.0,9.0,34,0.00,,,0.00,WeatherCatV1.02B3,2013-04-26 20:11:00,
2013-04-26 16:16:00,63.8,36.3,30.44,ENE,76,0.0,2.0,36,0.00,,,0.00,WeatherCatV1.02B3,2013-04-26 20:16:00,
2013-04-26 16:21:00,63.3,35.2,30.43,SE,130,0.0,5.0,35,0.00,,,0.00,WeatherCatV1.02B3,2013-04-26 20:21:00,
2013-04-26 16:26:00,62.9,35.5,30.43,West,280,3.0,4.0,36,0.00,,,0.00,WeatherCatV1.02B3,2013-04-26 20:26:00,
2013-04-26 16:31:00,62.4,35.1,30.42,WSW,258,3.0,3.0,36,0.00,,,0.00,WeatherCatV1.02B3,2013-04-26 20:31:00,
2013-04-26 16:36:00,62.1,34.8,30.43,SSE,165,0.0,4.0,36,0.00,,,0.00,WeatherCatV1.02B3,2013-04-26 20:36:00,
2013-04-26 16:41:00,62.4,35.1,30.43,WNW,284,0.0,6.0,36,0.00,,,0.00,WeatherCatV1.02B3,2013-04-26 20:41:00,
2013-04-26 16:46:00,62.9,36.2,30.43,SSW,200,0.0,3.0,37,0.00,,,0.00,WeatherCatV1.02B3,2013-04-26 20:46:00,
2013-04-26 16:51:00,62.9,35.5,30.43,SW,232,0.0,5.0,36,0.00,,,0.00,WeatherCatV1.02B3,2013-04-26 20:51:00,
2013-04-26 16:56:00,63.1,35.7,30.43,West,267,1.0,6.0,36,0.00,,,0.00,WeatherCatV1.02B3,2013-04-26 20:56:00,
2013-04-26 17:01:00,63.3,36.6,30.43,NW,315,0.0,1.0,37,0.00,,,0.00,WeatherCatV1.02B3,2013-04-26 21:01:00,
2013-04-26 17:06:00,63.5,36.1,30.43,South,184,0.0,7.0,36,0.00,,,0.00,WeatherCatV1.02B3,2013-04-26 21:06:00,
2013-04-26 17:11:00,63.2,35.8,30.42,NE,49,0.0,4.0,36,0.00,,,0.00,WeatherCatV1.02B3,2013-04-26 21:11:00,
2013-04-26 17:16:00,62.9,35.5,30.42,South,173,0.0,6.0,36,0.00,,,0.00,WeatherCatV1.02B3,2013-04-26 21:16:00,
2013-04-26 17:21:00,62.8,36.1,30.41,West,274,3.0,5.0,37,0.00,,,0.00,WeatherCatV1.02B3,2013-04-26 21:21:00,
2013-04-26 17:26:00,62.9,35.5,30.42,SW,215,0.0,5.0,36,0.00,,,0.00,WeatherCatV1.02B3,2013-04-26 21:26:00,
2013-04-26 17:31:00,62.9,36.2,30.42,WSW,241,4.0,5.0,37,0.00,,,0.00,WeatherCatV1.02B3,2013-04-26 21:31:00,
2013-04-26 17:36:00,62.6,35.3,30.41,SW,236,2.0,4.0,36,0.00,,,0.00,WeatherCatV1.02B3,2013-04-26 21:36:00,
2013-04-26 17:41:00,62.1,35.5,30.41,SSE,161,0.0,3.0,37,0.00,,,0.00,WeatherCatV1.02B3,2013-04-26 21:41:00,
2013-04-26 17:46:00,61.5,35.7,30.40,SE,140,0.0,0.0,38,0.00,,,0.00,WeatherCatV1.02B3,2013-04-26 21:46:00,
2013-04-26 17:51:00,61.0,35.9,30.41,West,273,0.0,1.0,39,0.00,,,0.00,WeatherCatV1.02B3,2013-04-26 21:51:00,
2013-04-26 17:56:00,60.4,36.0,30.42,SSW,203,0.0,10.0,40,0.00,,,0.00,WeatherCatV1.02B3,2013-04-26 21:56:00,
2013-04-26 18:01:00,59.8,34.8,30.42,South,173,0.0,3.0,39,0.00,,,0.00,WeatherCatV1.02B3,2013-04-26 22:01:00,
2013-04-26 18:06:00,59.2,34.9,30.42,South,188,1.0,7.0,40,0.00,,,0.00,WeatherCatV1.02B3,2013-04-26 22:06:00,
2013-04-26 18:11:00,59.0,35.3,30.43,SW,221,0.0,0.0,41,0.00,,,0.00,WeatherCatV1.02B3,2013-04-26 22:11:00,
2013-04-26 18:16:00,59.0,35.9,30.44,WSW,256,0.0,1.0,42,0.00,,,0.00,WeatherCatV1.02B3,2013-04-26 22:16:00,
2013-04-26 18:21:00,58.7,35.7,30.43,SW,229,1.0,3.0,42,0.00,,,0.00,WeatherCatV1.02B3,2013-04-26 22:21:00,
2013-04-26 18:26:00,58.4,35.4,30.43,WSW,237,2.0,2.0,42,0.00,,,0.00,WeatherCatV1.02B3,2013-04-26 22:26:00,
2013-04-26 18:31:00,58.2,35.2,30.43,WSW,244,0.0,2.0,42,0.00,,,0.00,WeatherCatV1.02B3,2013-04-26 22:31:00,
2013-04-26 18:36:00,58.1,35.1,30.44,SW,228,0.0,4.0,42,0.00,,,0.00,WeatherCatV1.02B3,2013-04-26 22:36:00,
2013-04-26 18:41:00,57.9,34.9,30.44,South,175,0.0,0.0,42,0.00,,,0.00,WeatherCatV1.02B3,2013-04-26 22:41:00,
2013-04-26 18:46:00,57.7,35.4,30.44,SSW,205,0.0,2.0,43,0.00,,,0.00,WeatherCatV1.02B3,2013-04-26 22:46:00,
2013-04-26 18:51:00,57.5,36.3,30.44,SE,132,0.0,0.0,45,0.00,,,0.00,WeatherCatV1.02B3,2013-04-26 22:51:00,
2013-04-26 18:56:00,57.3,36.1,30.44,SW,229,0.0,1.0,45,0.00,,,0.00,WeatherCatV1.02B3,2013-04-26 22:56:00,
2013-04-26 19:01:00,56.9,35.2,30.45,WSW,245,0.0,1.0,44,0.00,,,0.00,WeatherCatV1.02B3,2013-04-26 23:01:00,
2013-04-26 19:06:00,56.7,35.6,30.45,WSW,238,1.0,2.0,45,0.00,,,0.00,WeatherCatV1.02B3,2013-04-26 23:06:00,
2013-04-26 19:11:00,56.5,35.4,30.46,SSW,194,0.0,0.0,45,0.00,,,0.00,WeatherCatV1.02B3,2013-04-26 23:11:00,
2013-04-26 19:16:00,56.3,35.8,30.46,West,281,0.0,1.0,46,0.00,,,0.00,WeatherCatV1.02B3,2013-04-26 23:16:00,
2013-04-26 19:21:00,56.1,35.1,30.46,SSW,200,0.0,1.0,45,0.00,,,0.00,WeatherCatV1.02B3,2013-04-26 23:21:00,
2013-04-26 19:26:00,56.0,35.5,30.46,SSW,203,1.0,1.0,46,0.00,,,0.00,WeatherCatV1.02B3,2013-04-26 23:26:00,
2013-04-26 19:31:00,55.9,35.4,30.46,ESE,120,1.0,2.0,46,0.00,,,0.00,WeatherCatV1.02B3,2013-04-26 23:31:00,
2013-04-26 19:36:00,55.5,35.1,30.46,SE,146,0.0,1.0,46,0.00,,,0.00,WeatherCatV1.02B3,2013-04-26 23:36:00,
2013-04-26 19:41:00,55.3,35.4,30.46,SE,145,0.0,0.0,47,0.00,,,0.00,WeatherCatV1.02B3,2013-04-26 23:41:00,
2013-04-26 19:46:00,55.1,34.7,30.46,SE,146,0.0,1.0,46,0.00,,,0.00,WeatherCatV1.02B3,2013-04-26 23:46:00,
2013-04-26 19:51:00,54.9,36.6,30.46,SE,146,0.0,0.0,50,0.00,,,0.00,WeatherCatV1.02B3,2013-04-26 23:51:00,
2013-04-26 20:05:00,54.1,35.9,30.47,SE,145,0.0,0.0,50,0.00,,,0.00,WeatherCatV1.02B3,2013-04-27 00:05:00,
2013-04-26 20:10:00,53.8,35.6,30.47,SE,133,0.0,0.0,50,0.00,,,0.00,WeatherCatV1.02B3,2013-04-27 00:10:00,
2013-04-26 20:15:00,53.5,35.8,30.47,SE,133,0.0,0.0,51,0.00,,,0.00,WeatherCatV1.02B3,2013-04-27 00:15:00,
2013-04-26 20:20:00,53.3,35.6,30.48,SE,132,0.0,0.0,51,0.00,,,0.00,WeatherCatV1.02B3,2013-04-27 00:20:00,
2013-04-26 20:25:00,53.2,36.0,30.48,SE,132,0.0,0.0,52,0.00,,,0.00,WeatherCatV1.02B3,2013-04-27 00:25:00,
2013-04-26 20:30:00,53.1,35.9,30.48,SE,132,0.0,0.0,52,0.00,,,0.00,WeatherCatV1.02B3,2013-04-27 00:30:00,
2013-04-26 20:35:00,52.9,35.3,30.47,SE,132,0.0,0.0,51,0.00,,,0.00,WeatherCatV1.02B3,2013-04-27 00:35:00,
2013-04-26 20:40:00,52.9,35.3,30.47,SE,132,0.0,0.0,51,0.00,,,0.00,WeatherCatV1.02B3,2013-04-27 00:40:00,
2013-04-26 20:45:00,52.9,35.3,30.47,SE,132,0.0,0.0,51,0.00,,,0.00,WeatherCatV1.02B3,2013-04-27 00:45:00,
2013-04-26 20:50:00,52.9,36.2,30.47,SE,132,0.0,0.0,53,0.00,,,0.00,WeatherCatV1.02B3,2013-04-27 00:50:00,
2013-04-26 20:55:00,52.9,36.2,30.47,SE,132,0.0,0.0,53,0.00,,,0.00,WeatherCatV1.02B3,2013-04-27 00:55:00,
2013-04-26 21:00:00,52.7,36.1,30.46,SE,132,0.0,0.0,53,0.00,,,0.00,WeatherCatV1.02B3,2013-04-27 01:00:00,
2013-04-26 21:05:00,52.5,35.9,30.46,SE,132,0.0,0.0,53,0.00,,,0.00,WeatherCatV1.02B3,2013-04-27 01:05:00,
2013-04-26 21:10:00,52.4,35.8,30.46,SE,132,0.0,0.0,53,0.00,,,0.00,WeatherCatV1.02B3,2013-04-27 01:10:00,
2013-04-26 21:15:00,52.3,36.2,30.46,SE,132,0.0,0.0,54,0.00,,,0.00,WeatherCatV1.02B3,2013-04-27 01:15:00,
2013-04-26 21:20:00,52.3,36.2,30.46,SE,132,0.0,0.0,54,0.00,,,0.00,WeatherCatV1.02B3,2013-04-27 01:20:00,
2013-04-26 21:25:00,52.2,36.1,30.46,SE,132,0.0,0.0,54,0.00,,,0.00,WeatherCatV1.02B3,2013-04-27 01:25:00,
2013-04-26 21:30:00,52.1,36.4,30.46,SE,132,0.0,0.0,55,0.00,,,0.00,WeatherCatV1.02B3,2013-04-27 01:30:00,
2013-04-26 21:35:00,52.1,36.0,30.45,SE,132,0.0,0.0,54,0.00,,,0.00,WeatherCatV1.02B3,2013-04-27 01:35:00,
2013-04-26 21:38:00,52.0,34.9,30.45,SE,132,0.0,1.0,52,0.00,,,0.00,WeatherCatV1.02B3,2013-04-27 01:38:00,
2013-04-26 21:43:00,52.1,36.0,30.45,West,273,0.0,0.0,54,0.00,,,0.00,WeatherCatV1.02B3,2013-04-27 01:43:00,
2013-04-26 21:48:00,52.1,36.4,30.45,West,274,0.0,1.0,55,0.00,,,0.00,WeatherCatV1.02B3,2013-04-27 01:48:00,
2013-04-26 21:53:00,52.1,36.4,30.45,West,273,0.0,1.0,55,0.00,,,0.00,WeatherCatV1.02B3,2013-04-27 01:53:00,
2013-04-26 21:58:00,52.0,37.2,30.45,West,273,0.0,0.0,57,0.00,,,0.00,WeatherCatV1.02B3,2013-04-27 01:58:00,
2013-04-26 22:03:00,52.0,36.8,30.45,West,274,0.0,0.0,56,0.00,,,0.00,WeatherCatV1.02B3,2013-04-27 02:03:00,
2013-04-26 22:08:00,52.0,36.3,30.44,West,274,0.0,0.0,55,0.00,,,0.00,WeatherCatV1.02B3,2013-04-27 02:08:00,
2013-04-26 22:13:00,52.0,36.8,30.44,West,280,0.0,1.0,56,0.00,,,0.00,WeatherCatV1.02B3,2013-04-27 02:13:00,
2013-04-26 22:18:00,51.9,37.2,30.45,West,281,0.0,0.0,57,0.00,,,0.00,WeatherCatV1.02B3,2013-04-27 02:18:00,
2013-04-26 22:23:00,51.8,37.1,30.44,West,281,0.0,0.0,57,0.00,,,0.00,WeatherCatV1.02B3,2013-04-27 02:23:00,
2013-04-26 22:28:00,51.7,37.0,30.44,West,281,0.0,0.0,57,0.00,,,0.00,WeatherCatV1.02B3,2013-04-27 02:28:00,
2013-04-26 22:33:00,51.5,36.8,30.44,West,280,0.0,0.0,57,0.00,,,0.00,WeatherCatV1.02B3,2013-04-27 02:33:00,
2013-04-26 22:38:00,51.5,37.2,30.44,West,280,0.0,0.0,58,0.00,,,0.00,WeatherCatV1.02B3,2013-04-27 02:38:00,
2013-04-26 22:43:00,51.4,36.2,30.45,West,281,0.0,0.0,56,0.00,,,0.00,WeatherCatV1.02B3,2013-04-27 02:43:00,
2013-04-26 22:48:00,51.5,36.8,30.45,West,281,0.0,0.0,57,0.00,,,0.00,WeatherCatV1.02B3,2013-04-27 02:48:00,
2013-04-26 22:53:00,51.5,38.1,30.45,West,281,0.0,0.0,60,0.00,,,0.00,WeatherCatV1.02B3,2013-04-27 02:53:00,
2013-04-26 22:58:00,51.3,37.9,30.45,West,281,0.0,0.0,60,0.00,,,0.00,WeatherCatV1.02B3,2013-04-27 02:58:00,
2013-04-26 23:03:00,51.2,37.4,30.45,West,280,0.0,0.0,59,0.00,,,0.00,WeatherCatV1.02B3,2013-04-27 03:03:00,
2013-04-26 23:08:00,51.1,38.1,30.45,West,280,0.0,0.0,61,0.00,,,0.00,WeatherCatV1.02B3,2013-04-27 03:08:00,
2013-04-26 23:13:00,51.0,38.4,30.44,West,281,0.0,0.0,62,0.00,,,0.00,WeatherCatV1.02B3,2013-04-27 03:13:00,
2013-04-26 23:18:00,51.0,36.3,30.44,West,281,0.0,0.0,57,0.00,,,0.00,WeatherCatV1.02B3,2013-04-27 03:18:00,
2013-04-26 23:23:00,51.2,36.5,30.44,West,281,0.0,1.0,57,0.00,,,0.00,WeatherCatV1.02B3,2013-04-27 03:23:00,
2013-04-26 23:28:00,51.3,35.7,30.44,SSW,207,0.0,1.0,55,0.00,,,0.00,WeatherCatV1.02B3,2013-04-27 03:28:00,
2013-04-26 23:33:00,51.3,36.6,30.44,SSW,208,0.0,0.0,57,0.00,,,0.00,WeatherCatV1.02B3,2013-04-27 03:33:00,
2013-04-26 23:38:00,51.4,37.1,30.44,SSW,207,0.0,0.0,58,0.00,,,0.00,WeatherCatV1.02B3,2013-04-27 03:38:00,
2013-04-26 23:43:00,51.3,36.6,30.44,SSW,207,0.0,0.0,57,0.00,,,0.00,WeatherCatV1.02B3,2013-04-27 03:43:00,
2013-04-26 23:48:00,51.2,37.4,30.44,SSW,208,0.0,2.0,59,0.00,,,0.00,WeatherCatV1.02B3,2013-04-27 03:48:00,
2013-04-26 23:53:00,51.1,37.3,30.45,SSW,208,0.0,0.0,59,0.00,,,0.00,WeatherCatV1.02B3,2013-04-27 03:53:00,
2013-04-26 23:58:00,50.9,37.1,30.46,SSW,208,0.0,0.0,59,0.00,,,0.00,WeatherCatV1.02B3,2013-04-27 03:58:00,